Time;durP1;ratioP1;P1;durP2;ratioP2;P2;SDS_P1;SDS_P2;PMS_P1;PMS_P2;Temp;Humidity;BMP_temperature;BMP_pressure;BME280_temperature;BME280_humidity;BME280_pressure;Samples;Min_cycle;Max_cycle;Signal;HPM_P1;HPM_P2
2022/09/16 00:00:23;;;;;;;1.13;0.20;;;11.00;99.90;;;;;;5021218;28;20179;-82
2022/09/16 00:02:52;;;;;;;3.60;0.50;;;11.10;99.90;;;;;;5023873;28;20995;-82
2022/09/16 00:05:17;;;;;;;1.70;0.60;;;11.20;99.90;;;;;;5023650;28;20259;-85
2022/09/16 00:07:43;;;;;;;1.00;0.20;;;11.10;99.90;;;;;;5014959;28;20977;-85
2022/09/16 00:10:09;;;;;;;1.73;0.30;;;11.20;99.90;;;;;;5014088;28;20206;-85
2022/09/16 00:12:37;;;;;;;2.10;0.20;;;11.20;99.90;;;;;;5015227;28;20173;-89
2022/09/16 00:15:03;;;;;;;1.63;0.40;;;11.20;99.90;;;;;;5013343;28;20186;-90
2022/09/16 00:17:34;;;;;;;0.50;0.20;;;11.10;99.90;;;;;;5014082;28;20411;-91
2022/09/16 00:20:03;;;;;;;1.23;0.30;;;11.10;99.90;;;;;;5014340;28;20572;-85
2022/09/16 00:22:28;;;;;;;1.30;0.30;;;11.10;99.90;;;;;;5014085;28;20407;-89
2022/09/16 00:24:54;;;;;;;1.07;0.20;;;11.00;99.90;;;;;;5013474;28;20481;-84
2022/09/16 00:27:19;;;;;;;3.10;0.40;;;11.00;99.90;;;;;;5012884;28;20642;-84
2022/09/16 00:29:45;;;;;;;1.00;0.20;;;10.90;99.90;;;;;;5013188;28;20178;-88
2022/09/16 00:32:11;;;;;;;2.00;0.50;;;10.90;99.90;;;;;;5012915;28;20269;-90
2022/09/16 00:34:36;;;;;;;0.57;0.20;;;10.90;99.90;;;;;;5014220;28;20170;-89
2022/09/16 00:37:02;;;;;;;0.50;0.20;;;10.80;99.90;;;;;;5016722;28;20532;-90
2022/09/16 00:39:28;;;;;;;2.40;0.57;;;10.80;99.90;;;;;;5034024;28;20170;-85
2022/09/16 00:41:54;;;;;;;0.70;0.20;;;10.80;99.90;;;;;;5032745;28;20466;-82
2022/09/16 00:44:53;;;;;;;3.30;0.40;;;10.70;99.90;;;;;;5030760;28;20855;-82
2022/09/16 00:47:30;;;;;;;1.53;0.30;;;10.70;99.90;;;;;;5035546;28;20180;-91
2022/09/16 00:50:17;;;;;;;2.00;0.33;;;10.70;99.90;;;;;;5037356;28;20403;-91
2022/09/16 00:52:48;;;;;;;1.43;0.20;;;10.70;99.90;;;;;;5033128;28;20995;-87
2022/09/16 00:55:20;;;;;;;0.60;0.20;;;10.70;99.90;;;;;;5033432;28;20416;-86
2022/09/16 00:57:46;;;;;;;3.37;0.43;;;10.80;99.90;;;;;;5032691;28;20445;-89
2022/09/16 01:00:12;;;;;;;1.00;0.20;;;10.90;99.90;;;;;;5033137;28;20925;-87
2022/09/16 01:02:40;;;;;;;1.07;0.20;;;11.00;99.90;;;;;;5032004;28;20411;-83
2022/09/16 01:05:11;;;;;;;4.17;0.30;;;11.00;99.90;;;;;;5031626;28;20476;-82
2022/09/16 01:07:43;;;;;;;2.87;0.20;;;11.10;99.90;;;;;;5033011;28;20407;-86
2022/09/16 01:10:09;;;;;;;1.80;0.20;;;11.10;99.90;;;;;;5032932;28;20482;-86
2022/09/16 01:12:36;;;;;;;1.27;0.20;;;11.10;99.90;;;;;;5032935;28;20949;-87
2022/09/16 01:15:03;;;;;;;2.63;0.67;;;11.00;99.90;;;;;;5035745;28;20182;-87
2022/09/16 01:17:49;;;;;;;1.03;0.20;;;11.00;99.90;;;;;;5036447;28;20439;-84
2022/09/16 01:20:45;;;;;;;2.63;0.20;;;10.90;99.90;;;;;;5035643;28;20431;-88
2022/09/16 01:23:42;;;;;;;2.83;0.20;;;10.90;99.90;;;;;;5036316;28;20450;-87
2022/09/16 01:26:26;;;;;;;5.47;0.20;;;10.90;99.90;;;;;;5036337;28;20444;-87
2022/09/16 01:29:30;;;;;;;1.23;0.20;;;11.00;99.90;;;;;;5036347;28;20478;-88
2022/09/16 01:32:03;;;;;;;2.30;0.30;;;11.00;99.90;;;;;;5036428;28;20490;-82
2022/09/16 01:34:47;;;;;;;1.83;0.40;;;11.00;99.90;;;;;;5036319;28;20418;-89
2022/09/16 01:37:49;;;;;;;1.57;0.30;;;11.00;99.90;;;;;;5036225;28;20548;-87
2022/09/16 01:40:32;;;;;;;0.30;0.20;;;11.10;99.90;;;;;;5035391;28;20418;-89
2022/09/16 01:43:29;;;;;;;1.33;0.20;;;11.00;99.90;;;;;;5035938;28;20823;-85
2022/09/16 01:46:03;;;;;;;2.63;0.20;;;11.00;99.90;;;;;;5031618;28;20433;-85
2022/09/16 01:48:38;;;;;;;0.83;0.20;;;10.90;99.90;;;;;;5035104;28;20416;-85
2022/09/16 01:51:31;;;;;;;1.90;0.40;;;10.80;99.90;;;;;;5035578;28;20500;-89
2022/09/16 01:54:10;;;;;;;1.53;0.20;;;10.70;99.90;;;;;;5035405;28;20431;-89
2022/09/16 01:57:06;;;;;;;7.57;0.20;;;10.70;99.90;;;;;;5036202;28;20443;-84
2022/09/16 01:59:51;;;;;;;0.93;0.60;;;10.60;99.90;;;;;;5036310;28;20413;-84
2022/09/16 02:02:24;;;;;;;0.80;0.20;;;10.70;99.90;;;;;;5036868;28;20414;-86
2022/09/16 02:04:54;;;;;;;2.13;0.30;;;10.70;99.90;;;;;;5036223;28;20504;-89
2022/09/16 02:07:23;;;;;;;1.20;0.30;;;10.80;99.90;;;;;;5036724;28;20464;-91
2022/09/16 02:09:55;;;;;;;0.90;0.20;;;10.80;99.90;;;;;;5035017;28;20428;-88
2022/09/16 02:12:27;;;;;;;2.53;0.20;;;10.70;99.90;;;;;;5036167;28;20416;-83
2022/09/16 02:14:58;;;;;;;3.23;0.40;;;10.70;99.90;;;;;;5036198;28;20407;-83
2022/09/16 02:17:26;;;;;;;0.80;0.30;;;10.70;99.90;;;;;;5035030;28;20443;-87
2022/09/16 02:20:13;;;;;;;1.10;0.23;;;10.60;99.90;;;;;;5036298;28;20414;-88
2022/09/16 02:22:43;;;;;;;1.23;0.37;;;10.60;99.90;;;;;;5037039;28;20422;-91
2022/09/16 02:25:11;;;;;;;0.80;0.30;;;10.50;99.90;;;;;;5034466;28;20475;-90
2022/09/16 02:27:39;;;;;;;2.13;0.20;;;10.50;99.90;;;;;;5036553;28;20424;-88
2022/09/16 02:30:08;;;;;;;4.70;0.50;;;10.50;99.90;;;;;;5036790;28;20412;-89
2022/09/16 02:32:38;;;;;;;2.50;0.30;;;10.50;99.90;;;;;;5036206;28;20432;-90
2022/09/16 02:35:06;;;;;;;1.17;0.40;;;10.50;99.90;;;;;;5036119;28;20756;-89
2022/09/16 02:37:43;;;;;;;2.27;0.30;;;10.50;99.90;;;;;;5036436;28;20468;-90
2022/09/16 02:40:18;;;;;;;2.80;0.30;;;10.60;99.90;;;;;;5036816;28;20408;-89
2022/09/16 02:42:48;;;;;;;0.60;0.20;;;10.60;99.90;;;;;;5035868;28;20478;-91
2022/09/16 02:45:13;;;;;;;2.93;0.37;;;10.60;99.90;;;;;;5036999;28;20467;-88
2022/09/16 02:47:57;;;;;;;1.50;0.53;;;10.60;99.90;;;;;;5038002;28;20415;-86
2022/09/16 02:50:31;;;;;;;0.43;0.17;;;10.60;99.90;;;;;;5036994;28;20199;-91
2022/09/16 02:53:01;;;;;;;2.07;0.20;;;10.60;99.90;;;;;;5038440;28;20507;-84
2022/09/16 02:55:49;;;;;;;1.00;0.80;;;10.60;99.90;;;;;;5038659;28;20444;-86
2022/09/16 02:58:14;;;;;;;1.57;0.20;;;10.60;99.90;;;;;;5034769;28;20980;-91
2022/09/16 03:00:45;;;;;;;2.80;0.50;;;10.70;99.90;;;;;;5036672;28;20503;-90
2022/09/16 03:03:11;;;;;;;1.60;0.20;;;10.70;99.90;;;;;;5034561;28;20181;-91
2022/09/16 03:06:16;;;;;;;2.97;0.30;;;10.70;99.90;;;;;;5035684;28;20417;-84
2022/09/16 03:08:43;;;;;;;2.03;0.73;;;10.70;99.90;;;;;;4974206;28;20415;-88
2022/09/16 03:11:17;;;;;;;1.97;0.67;;;10.80;99.90;;;;;;5023883;28;20413;-88
2022/09/16 03:14:11;;;;;;;0.60;0.20;;;10.70;99.90;;;;;;5034629;28;20406;-86
2022/09/16 03:17:06;;;;;;;3.10;0.40;;;10.60;99.90;;;;;;5034990;28;20506;-88
2022/09/16 03:19:50;;;;;;;2.40;0.30;;;10.50;99.90;;;;;;5035001;28;20412;-90
2022/09/16 03:22:37;;;;;;;1.40;0.20;;;10.50;99.90;;;;;;5034518;28;20416;-86
2022/09/16 03:25:17;;;;;;;0.97;0.23;;;10.40;99.90;;;;;;5034412;28;20528;-87
2022/09/16 03:28:08;;;;;;;0.50;0.20;;;10.40;99.90;;;;;;5032866;28;20426;-88
2022/09/16 03:30:43;;;;;;;1.80;0.30;;;10.30;99.90;;;;;;5034367;28;20504;-88
2022/09/16 03:33:17;;;;;;;0.83;0.20;;;10.30;99.90;;;;;;5033423;28;20942;-88
2022/09/16 03:35:46;;;;;;;0.97;0.40;;;10.30;99.90;;;;;;5033544;28;20500;-84
2022/09/16 03:38:13;;;;;;;0.63;0.20;;;10.20;99.90;;;;;;5034399;28;20812;-85
2022/09/16 03:40:40;;;;;;;0.50;0.20;;;10.20;99.90;;;;;;5034754;28;20404;-88
2022/09/16 03:43:14;;;;;;;1.87;0.33;;;10.20;99.90;;;;;;5034645;28;20439;-89
2022/09/16 03:45:41;;;;;;;5.97;0.53;;;10.10;99.90;;;;;;5034793;28;20430;-88
2022/09/16 03:48:08;;;;;;;0.80;0.30;;;10.10;99.90;;;;;;5034598;28;20780;-89
2022/09/16 03:50:33;;;;;;;0.80;0.20;;;10.10;99.90;;;;;;5033331;28;20970;-82
2022/09/16 03:52:59;;;;;;;2.43;0.83;;;10.10;99.90;;;;;;5034243;28;20418;-89
2022/09/16 03:55:25;;;;;;;0.87;0.20;;;10.10;99.90;;;;;;5034134;28;20452;-87
2022/09/16 03:57:52;;;;;;;1.47;0.20;;;10.00;99.90;;;;;;5032699;28;20184;-87
2022/09/16 04:00:18;;;;;;;1.87;0.30;;;10.00;99.90;;;;;;5034385;28;20178;-87
2022/09/16 04:02:43;;;;;;;0.73;0.20;;;10.00;99.90;;;;;;5034297;28;20414;-89
2022/09/16 04:05:09;;;;;;;3.20;0.40;;;10.00;99.90;;;;;;5032780;28;20654;-86
2022/09/16 04:07:34;;;;;;;3.50;0.63;;;10.00;99.90;;;;;;5034378;28;20173;-89
2022/09/16 04:10:00;;;;;;;1.83;0.40;;;9.90;99.90;;;;;;5034644;28;20175;-85
2022/09/16 04:12:27;;;;;;;0.97;0.20;;;10.00;99.90;;;;;;5033921;28;20172;-87
2022/09/16 04:14:53;;;;;;;2.80;1.13;;;10.10;99.90;;;;;;5034460;28;20805;-87
2022/09/16 04:17:19;;;;;;;2.53;0.30;;;10.10;99.90;;;;;;5034221;28;20417;-87
2022/09/16 04:19:44;;;;;;;5.93;0.73;;;10.20;99.90;;;;;;5034709;28;20166;-89
2022/09/16 04:22:10;;;;;;;1.43;0.30;;;10.30;99.90;;;;;;5034455;28;20545;-90
2022/09/16 04:24:36;;;;;;;0.80;0.20;;;10.40;99.90;;;;;;5033842;28;20221;-89
2022/09/16 04:27:01;;;;;;;0.67;0.20;;;10.40;99.90;;;;;;5033659;28;20174;-88
2022/09/16 04:29:27;;;;;;;2.30;0.53;;;10.40;99.90;;;;;;5034309;28;20263;-88
2022/09/16 04:31:53;;;;;;;0.50;0.20;;;10.40;99.90;;;;;;5034153;28;20206;-86
2022/09/16 04:34:32;;;;;;;4.40;0.40;;;10.40;99.90;;;;;;5032656;28;20181;-86
2022/09/16 04:36:58;;;;;;;4.40;0.67;;;10.40;99.90;;;;;;5033725;28;20996;-87
2022/09/16 04:39:23;;;;;;;3.40;0.50;;;10.30;99.90;;;;;;5032373;28;20468;-87
2022/09/16 04:41:49;;;;;;;0.93;0.20;;;10.30;99.90;;;;;;5033647;28;20171;-87
2022/09/16 04:44:14;;;;;;;0.40;0.20;;;10.30;99.90;;;;;;5032185;28;20291;-84
2022/09/16 04:46:40;;;;;;;2.97;0.20;;;10.30;99.90;;;;;;5033870;28;20630;-88
2022/09/16 04:49:05;;;;;;;1.17;0.30;;;10.30;99.90;;;;;;5032188;28;20191;-87
2022/09/16 04:51:31;;;;;;;1.43;0.23;;;10.30;99.90;;;;;;5033788;28;20179;-89
2022/09/16 04:53:57;;;;;;;1.80;0.30;;;10.20;99.90;;;;;;5034172;28;20176;-88
2022/09/16 04:56:26;;;;;;;0.67;0.30;;;10.20;99.90;;;;;;5033618;28;20408;-90
2022/09/16 04:58:54;;;;;;;2.00;0.60;;;10.10;99.90;;;;;;5043555;28;20557;-89
2022/09/16 05:01:29;;;;;;;1.03;0.30;;;10.10;99.90;;;;;;5041332;28;20419;-89
2022/09/16 05:03:57;;;;;;;0.57;0.20;;;10.10;99.90;;;;;;5040783;28;20473;-88
2022/09/16 05:06:26;;;;;;;1.50;0.30;;;10.10;99.90;;;;;;5040216;28;20500;-84
2022/09/16 05:08:53;;;;;;;0.50;0.27;;;10.00;99.90;;;;;;5035008;28;20756;-89
2022/09/16 05:11:24;;;;;;;2.70;0.67;;;10.00;99.90;;;;;;5033094;28;20785;-89
2022/09/16 05:13:49;;;;;;;1.03;0.40;;;10.00;99.90;;;;;;5033324;28;20469;-90
2022/09/16 05:16:17;;;;;;;2.10;0.60;;;10.10;99.90;;;;;;5033014;28;20972;-89
2022/09/16 05:18:47;;;;;;;0.87;0.20;;;10.10;99.90;;;;;;5034183;28;20540;-90
2022/09/16 05:21:18;;;;;;;2.10;0.20;;;10.10;99.90;;;;;;5033966;28;20423;-89
2022/09/16 05:23:44;;;;;;;2.60;0.30;;;10.10;99.90;;;;;;5034222;28;20494;-89
2022/09/16 05:26:15;;;;;;;3.30;0.57;;;10.10;99.90;;;;;;5033720;28;20421;-90
2022/09/16 05:28:41;;;;;;;3.50;0.50;;;10.10;99.90;;;;;;5034761;28;20404;-90
2022/09/16 05:31:14;;;;;;;2.27;0.47;;;10.10;99.90;;;;;;5033714;28;20511;-90
2022/09/16 05:33:41;;;;;;;1.43;0.33;;;10.10;99.90;;;;;;5034842;28;20165;-91
2022/09/16 05:36:10;;;;;;;1.50;0.40;;;10.10;99.90;;;;;;5034236;28;20467;-87
2022/09/16 05:38:35;;;;;;;0.90;0.27;;;10.20;99.90;;;;;;5034863;28;20419;-91
2022/09/16 05:41:02;;;;;;;3.47;0.90;;;10.30;99.90;;;;;;5034723;28;20837;-90
2022/09/16 05:43:28;;;;;;;1.00;0.47;;;10.30;99.90;;;;;;5033789;28;20235;-88
2022/09/16 05:45:54;;;;;;;1.23;0.20;;;10.40;99.90;;;;;;5033707;28;20436;-90
2022/09/16 05:48:21;;;;;;;2.60;0.20;;;10.60;99.90;;;;;;5033778;28;20171;-88
2022/09/16 05:50:58;;;;;;;1.70;0.33;;;10.60;99.90;;;;;;5032741;28;20940;-90
2022/09/16 05:53:24;;;;;;;1.20;0.67;;;10.70;99.90;;;;;;5033765;28;20524;-90
2022/09/16 05:56:01;;;;;;;0.90;0.23;;;10.70;99.90;;;;;;5033802;28;20424;-89
2022/09/16 05:58:29;;;;;;;0.50;0.20;;;10.70;99.90;;;;;;5033248;28;20417;-85
2022/09/16 06:01:09;;;;;;;1.87;0.20;;;10.70;99.90;;;;;;5037482;28;20500;-89
2022/09/16 06:03:37;;;;;;;0.97;0.20;;;10.70;99.90;;;;;;5038145;28;20480;-82
2022/09/16 06:06:11;;;;;;;3.10;0.40;;;10.70;99.90;;;;;;5023789;28;20428;-86
2022/09/16 06:08:37;;;;;;;1.90;0.40;;;10.70;99.90;;;;;;5016385;28;20451;-86
2022/09/16 06:11:06;;;;;;;3.23;0.30;;;10.80;99.90;;;;;;5034619;28;20423;-86
2022/09/16 06:13:32;;;;;;;2.93;0.20;;;10.70;99.90;;;;;;5035339;28;20836;-80
2022/09/16 06:15:57;;;;;;;6.37;0.57;;;10.80;99.90;;;;;;5031483;28;20471;-79
2022/09/16 06:18:25;;;;;;;1.07;0.50;;;10.90;99.90;;;;;;5025728;28;20196;-87
2022/09/16 06:20:51;;;;;;;4.30;0.53;;;11.00;99.90;;;;;;5035864;28;20633;-81
2022/09/16 06:23:17;;;;;;;4.53;0.23;;;11.10;99.90;;;;;;5026652;28;20448;-81
2022/09/16 06:25:43;;;;;;;4.63;0.40;;;11.20;99.90;;;;;;5024992;28;20518;-80
2022/09/16 06:28:10;;;;;;;1.50;0.30;;;11.40;99.90;;;;;;5034952;28;20246;-85
2022/09/16 06:30:39;;;;;;;1.80;0.20;;;11.90;99.90;;;;;;5035059;28;20176;-80
2022/09/16 06:33:05;;;;;;;3.27;0.53;;;13.70;99.90;;;;;;5035291;28;20421;-85
2022/09/16 06:35:33;;;;;;;0.80;0.20;;;15.40;80.30;;;;;;5035200;28;20406;-81
2022/09/16 06:37:58;;;;;;;1.63;0.30;;;16.30;1.00;;;;;;5033807;28;20574;-81
2022/09/16 06:40:24;;;;;;;2.13;0.30;;;16.40;99.90;;;;;;5035118;28;20490;-81
2022/09/16 06:42:53;;;;;;;2.87;0.40;;;16.70;99.90;;;;;;5033571;28;20217;-86
2022/09/16 06:45:19;;;;;;;2.77;0.50;;;17.10;99.90;;;;;;5035199;28;20219;-82
2022/09/16 06:47:44;;;;;;;0.93;0.20;;;17.20;99.90;;;;;;5034759;28;20424;-87
2022/09/16 06:50:10;;;;;;;1.30;0.23;;;16.40;1.00;;;;;;5034748;28;20414;-82
2022/09/16 06:52:35;;;;;;;1.10;0.23;;;16.40;99.90;;;;;;5034603;28;20192;-82
2022/09/16 06:55:01;;;;;;;1.17;0.33;;;15.40;1.00;;;;;;5034629;28;20479;-81
2022/09/16 06:57:26;;;;;;;1.33;0.20;;;15.50;1.00;;;;;;5034255;28;20177;-82
2022/09/16 06:59:52;;;;;;;1.23;0.20;;;16.90;83.00;;;;;;5034522;28;20231;-83
2022/09/16 07:02:18;;;;;;;2.60;0.40;;;17.70;1.00;;;;;;5034407;28;20175;-82
2022/09/16 07:04:44;;;;;;;2.33;0.43;;;17.90;99.90;;;;;;5034332;28;20215;-81
2022/09/16 07:07:10;;;;;;;3.03;0.20;;;18.00;99.90;;;;;;5034523;28;20996;-82
2022/09/16 07:09:35;;;;;;;1.40;0.20;;;18.40;92.30;;;;;;5034340;28;20213;-82
2022/09/16 07:12:04;;;;;;;3.10;0.30;;;18.80;1.00;;;;;;5033162;28;20173;-81
2022/09/16 07:14:32;;;;;;;3.37;0.50;;;19.10;1.00;;;;;;5034358;28;20197;-83
2022/09/16 07:16:59;;;;;;;2.23;0.60;;;18.70;1.00;;;;;;5034325;28;20424;-80
2022/09/16 07:19:25;;;;;;;1.20;0.30;;;18.90;1.00;;;;;;5034232;28;20571;-82
2022/09/16 07:21:51;;;;;;;1.40;0.10;;;18.90;1.00;;;;;;5034144;28;20419;-84
2022/09/16 07:24:16;;;;;;;1.90;0.20;;;19.40;99.90;;;;;;5034075;28;20474;-82
2022/09/16 07:26:49;;;;;;;2.23;0.50;;;19.30;99.90;;;;;;5033663;28;20210;-82
2022/09/16 07:29:16;;;;;;;0.67;0.20;;;19.60;99.90;;;;;;5034110;28;20179;-82
2022/09/16 07:31:42;;;;;;;2.00;0.30;;;20.00;99.90;;;;;;5033931;28;20487;-80
2022/09/16 07:34:10;;;;;;;1.23;0.30;;;19.70;99.90;;;;;;5033729;28;20422;-82
2022/09/16 07:36:38;;;;;;;2.20;0.20;;;20.00;99.90;;;;;;5033403;28;20229;-81
2022/09/16 07:39:04;;;;;;;1.23;0.20;;;20.30;99.90;;;;;;5033575;28;20469;-81
2022/09/16 07:41:34;;;;;;;1.10;0.20;;;20.40;99.90;;;;;;5033395;28;20413;-78
2022/09/16 07:44:00;;;;;;;2.23;0.20;;;20.70;99.90;;;;;;5035972;28;20535;-81
2022/09/16 07:46:28;;;;;;;0.77;0.20;;;20.70;99.90;;;;;;5050545;28;20428;-81
2022/09/16 07:48:54;;;;;;;6.70;0.67;;;20.70;99.90;;;;;;5033636;28;20855;-80
2022/09/16 07:51:22;;;;;;;2.43;0.20;;;20.50;99.90;;;;;;5033533;28;20462;-79
2022/09/16 07:53:53;;;;;;;1.73;0.20;;;21.00;99.90;;;;;;5033480;28;20972;-81
2022/09/16 07:56:21;;;;;;;1.67;0.20;;;20.60;99.90;;;;;;5033358;28;20424;-80
2022/09/16 07:58:47;;;;;;;3.43;0.40;;;21.10;99.90;;;;;;5033672;28;20488;-79
2022/09/16 08:01:15;;;;;;;1.30;0.20;;;21.30;99.90;;;;;;5032636;28;20464;-79
2022/09/16 08:03:44;;;;;;;1.43;0.30;;;21.30;99.90;;;;;;5033157;28;20465;-80
2022/09/16 08:06:13;;;;;;;2.63;0.20;;;21.90;85.90;;;;;;5033265;28;20417;-80
2022/09/16 08:08:41;;;;;;;1.90;0.27;;;22.00;92.50;;;;;;5033002;28;20554;-80
2022/09/16 08:11:08;;;;;;;1.73;0.20;;;21.90;62.70;;;;;;5033139;28;20413;-79
2022/09/16 08:13:35;;;;;;;1.00;0.40;;;21.80;56.80;;;;;;5031479;28;20949;-80
2022/09/16 08:16:21;;;;;;;1.07;0.20;;;21.10;79.70;;;;;;5033068;28;20968;-80
2022/09/16 08:18:49;;;;;;;5.97;0.83;;;19.30;99.90;;;;;;5033177;28;20409;-82
2022/09/16 08:21:17;;;;;;;1.67;0.20;;;21.20;99.90;;;;;;5028910;28;20418;-81
2022/09/16 08:23:43;;;;;;;2.13;0.20;;;22.00;91.00;;;;;;5029915;28;20496;-84
2022/09/16 08:26:11;;;;;;;0.83;0.20;;;21.60;61.30;;;;;;5032173;28;20423;-83
2022/09/16 08:28:37;;;;;;;3.00;0.43;;;19.80;99.90;;;;;;5031551;28;20166;-85
2022/09/16 08:31:04;;;;;;;4.50;0.27;;;18.70;1.00;;;;;;5032059;28;20419;-83
2022/09/16 08:33:30;;;;;;;0.53;0.20;;;18.80;1.00;;;;;;5031979;28;20551;-82
2022/09/16 08:35:59;;;;;;;3.80;0.20;;;20.10;99.90;;;;;;5032072;28;20450;-83
2022/09/16 08:38:25;;;;;;;1.03;0.20;;;21.20;95.20;;;;;;5032173;28;20190;-81
2022/09/16 08:40:57;;;;;;;3.73;0.30;;;21.70;70.50;;;;;;5031620;28;20421;-84
2022/09/16 08:43:44;;;;;;;0.93;0.20;;;22.00;57.70;;;;;;5031389;28;20256;-80
2022/09/16 08:46:20;;;;;;;0.90;0.30;;;22.30;53.50;;;;;;5031454;28;20520;-81
2022/09/16 08:48:57;;;;;;;1.43;0.20;;;22.20;55.90;;;;;;5031610;28;20413;-81
2022/09/16 08:51:23;;;;;;;3.53;0.50;;;22.20;53.00;;;;;;5031686;28;20463;-83
2022/09/16 08:54:00;;;;;;;1.53;0.23;;;22.50;55.20;;;;;;5030474;28;20507;-80
2022/09/16 08:56:29;;;;;;;2.13;0.30;;;22.60;44.50;;;;;;5030162;28;20447;-86
2022/09/16 08:58:59;;;;;;;4.40;0.33;;;22.90;39.40;;;;;;5031329;28;20424;-80
2022/09/16 09:01:39;;;;;;;1.90;0.30;;;23.00;33.10;;;;;;5031655;28;20435;-81
2022/09/16 09:04:05;;;;;;;2.73;0.30;;;22.40;32.50;;;;;;5031503;28;20541;-81
2022/09/16 09:06:55;;;;;;;1.60;0.40;;;22.60;42.60;;;;;;5030770;28;20425;-82
2022/09/16 09:09:44;;;;;;;1.43;0.20;;;22.70;37.00;;;;;;5031619;28;20413;-81
2022/09/16 09:12:13;;;;;;;3.97;0.40;;;23.40;31.60;;;;;;5033831;28;20409;-82
2022/09/16 09:14:47;;;;;;;2.20;0.40;;;22.80;25.20;;;;;;5037881;28;21020;-84
2022/09/16 09:17:33;;;;;;;0.70;0.20;;;22.80;23.20;;;;;;5043576;28;20432;-85
2022/09/16 09:20:15;;;;;;;4.27;0.20;;;23.10;34.80;;;;;;5024876;28;20793;-85
2022/09/16 09:23:02;;;;;;;1.87;0.20;;;23.20;26.00;;;;;;5044234;28;20424;-80
2022/09/16 09:25:40;;;;;;;2.43;0.30;;;22.70;23.90;;;;;;5041112;28;20829;-84
2022/09/16 09:28:30;;;;;;;2.87;0.30;;;23.30;24.60;;;;;;5042637;28;20482;-81
2022/09/16 09:31:21;;;;;;;4.13;0.30;;;20.20;52.70;;;;;;5040818;28;20420;-86
2022/09/16 09:34:15;;;;;;;2.30;0.30;;;19.50;99.90;;;;;;5042464;28;20500;-83
2022/09/16 09:36:43;;;;;;;0.90;0.33;;;17.80;1.00;;;;;;5045985;28;20467;-85
2022/09/16 09:39:42;;;;;;;3.60;0.30;;;17.30;99.90;;;;;;5045945;28;20450;-84
2022/09/16 09:42:30;;;;;;;2.83;0.50;;;17.60;99.90;;;;;;5046874;28;20419;-83
2022/09/16 09:45:04;;;;;;;1.30;0.53;;;17.30;1.00;;;;;;5047010;28;20535;-83
2022/09/16 09:47:41;;;;;;;2.30;0.23;;;16.80;1.00;;;;;;5046215;28;20428;-79
2022/09/16 09:50:27;;;;;;;1.97;0.20;;;16.20;1.00;;;;;;5041301;28;20411;-82
2022/09/16 09:52:55;;;;;;;1.17;0.23;;;15.10;1.00;;;;;;5043480;28;20441;-80
2022/09/16 09:55:24;;;;;;;1.63;0.20;;;15.40;1.00;;;;;;5044946;28;20402;-82
2022/09/16 09:58:04;;;;;;;3.73;0.30;;;16.40;99.90;;;;;;5042509;28;20430;-88
2022/09/16 10:00:30;;;;;;;0.90;0.20;;;16.70;1.00;;;;;;5032120;28;20804;-86
2022/09/16 10:03:06;;;;;;;1.90;0.20;;;17.90;99.90;;;;;;5033249;28;20480;-83
2022/09/16 10:05:32;;;;;;;3.30;0.30;;;20.00;1.00;;;;;;5034385;28;20213;-86
2022/09/16 10:08:03;;;;;;;1.70;0.20;;;20.40;99.90;;;;;;5034267;28;20479;-82
2022/09/16 10:10:33;;;;;;;1.53;0.20;;;20.60;99.90;;;;;;5033592;28;20432;-81
2022/09/16 10:13:09;;;;;;;0.87;0.20;;;19.20;99.90;;;;;;5034432;28;20429;-80
2022/09/16 10:15:35;;;;;;;3.17;0.30;;;18.90;99.90;;;;;;5033312;28;20440;-82
2022/09/16 10:18:08;;;;;;;1.43;0.30;;;20.20;99.90;;;;;;5034601;28;20433;-79
2022/09/16 10:20:40;;;;;;;1.47;0.20;;;21.40;99.70;;;;;;5034684;28;20508;-85
2022/09/16 10:23:14;;;;;;;0.97;0.30;;;22.20;81.30;;;;;;5034665;28;20433;-84
2022/09/16 10:25:43;;;;;;;3.90;0.60;;;22.60;53.70;;;;;;5034456;28;20437;-87
2022/09/16 10:28:23;;;;;;;3.33;0.73;;;21.40;62.00;;;;;;5033061;28;20425;-89
2022/09/16 10:30:52;;;;;;;1.40;0.20;;;22.30;49.90;;;;;;5034415;28;20504;-86
2022/09/16 10:33:33;;;;;;;1.20;0.27;;;21.30;45.90;;;;;;5034397;28;20450;-83
2022/09/16 10:36:05;;;;;;;1.73;0.30;;;21.20;44.30;;;;;;5034168;28;20459;-80
2022/09/16 10:38:40;;;;;;;2.73;0.20;;;21.90;36.10;;;;;;5034637;28;20491;-84
2022/09/16 10:41:13;;;;;;;2.10;0.30;;;22.20;38.70;;;;;;5034629;28;20908;-77
2022/09/16 10:43:46;;;;;;;1.43;0.30;;;22.70;25.40;;;;;;5034878;28;20489;-78
2022/09/16 10:46:14;;;;;;;1.50;0.23;;;23.20;20.60;;;;;;5032425;28;20430;-80
2022/09/16 10:48:41;;;;;;;4.07;0.50;;;23.10;17.60;;;;;;5034874;28;20429;-79
2022/09/16 10:51:26;;;;;;;1.20;0.40;;;22.90;15.40;;;;;;5034665;28;20417;-79
2022/09/16 10:53:57;;;;;;;3.33;0.20;;;23.40;18.60;;;;;;5034737;28;20504;-76
2022/09/16 10:56:28;;;;;;;1.60;0.30;;;23.40;9.90;;;;;;5034277;28;20428;-77
2022/09/16 10:59:11;;;;;;;1.30;0.53;;;22.70;3.60;;;;;;5034612;28;20453;-77
2022/09/16 11:02:00;;;;;;;7.17;0.87;;;22.70;3.10;;;;;;5034626;28;20452;-81
2022/09/16 11:04:45;;;;;;;2.37;0.20;;;22.60;2.80;;;;;;5034581;28;20469;-79
2022/09/16 11:07:42;;;;;;;1.80;0.30;;;22.90;1.80;;;;;;5034657;28;20409;-81
2022/09/16 11:10:43;;;;;;;2.10;0.30;;;23.20;3.60;;;;;;5030399;28;20432;-80
2022/09/16 11:13:28;;;;;;;2.17;0.20;;;23.40;5.50;;;;;;5033129;28;20413;-80
2022/09/16 11:16:21;;;;;;;1.60;0.20;;;23.60;4.10;;;;;;5033596;28;20408;-79
2022/09/16 11:19:18;;;;;;;1.57;0.20;;;24.00;4.40;;;;;;5033384;28;20459;-78
2022/09/16 11:22:03;;;;;;;1.17;0.40;;;23.60;1.00;;;;;;5032192;28;20436;-78
2022/09/16 11:24:49;;;;;;;2.13;0.30;;;24.20;3.10;;;;;;5033108;28;21000;-79
2022/09/16 11:27:24;;;;;;;2.30;0.27;;;23.70;1.60;;;;;;5032893;28;20917;-79
2022/09/16 11:30:17;;;;;;;4.97;0.33;;;22.80;1.00;;;;;;5033261;28;20512;-80
2022/09/16 11:33:09;;;;;;;3.20;0.30;;;20.70;1.00;;;;;;5031253;28;20432;-83
2022/09/16 11:36:07;;;;;;;4.03;0.20;;;18.90;99.90;;;;;;5032909;28;20933;-80
2022/09/16 11:38:46;;;;;;;3.03;0.77;;;18.40;1.00;;;;;;5032904;28;20534;-81
2022/09/16 11:41:29;;;;;;;1.33;0.30;;;18.70;99.90;;;;;;5031418;28;20419;-81
2022/09/16 11:44:14;;;;;;;1.90;0.27;;;18.30;99.90;;;;;;5032945;28;20454;-81
2022/09/16 11:47:08;;;;;;;2.23;0.20;;;18.50;1.00;;;;;;5032962;28;20414;-81
2022/09/16 11:50:11;;;;;;;2.13;0.27;;;18.10;1.00;;;;;;5013184;28;20418;-81
2022/09/16 11:53:21;;;;;;;1.93;0.30;;;18.10;99.90;;;;;;5013103;28;20410;-81
2022/09/16 11:55:56;;;;;;;1.87;0.30;;;17.80;1.00;;;;;;5011297;28;20429;-85
2022/09/16 11:58:50;;;;;;;3.10;0.40;;;17.50;99.90;;;;;;5012593;28;20438;-80
2022/09/16 12:01:29;;;;;;;1.50;0.30;;;17.30;99.90;;;;;;5012949;28;20413;-81
2022/09/16 12:04:32;;;;;;;1.07;0.20;;;17.20;99.90;;;;;;5012977;28;20466;-75
2022/09/16 12:07:06;;;;;;;0.97;0.20;;;17.10;1.00;;;;;;5013775;28;20921;-77
2022/09/16 12:09:58;;;;;;;3.23;0.90;;;18.20;1.00;;;;;;5013830;28;20509;-79
2022/09/16 12:12:38;;;;;;;1.10;0.23;;;19.60;99.90;;;;;;5013504;28;20732;-78
2022/09/16 12:15:24;;;;;;;3.87;0.33;;;20.70;99.90;;;;;;5013763;28;20496;-77
2022/09/16 12:18:13;;;;;;;0.90;0.20;;;21.20;89.00;;;;;;5013394;28;20417;-75
2022/09/16 12:20:48;;;;;;;1.83;0.20;;;21.80;92.40;;;;;;5013367;28;20877;-78
2022/09/16 12:23:18;;;;;;;1.23;0.20;;;22.10;65.10;;;;;;5013562;28;20909;-77
2022/09/16 12:25:54;;;;;;;1.10;0.20;;;22.10;43.40;;;;;;5018371;28;20762;-78
2022/09/16 12:28:44;;;;;;;0.60;0.20;;;22.00;44.20;;;;;;5023946;28;20409;-77
2022/09/16 12:31:34;;;;;;;0.97;0.40;;;22.00;46.30;;;;;;5022519;28;20571;-81
2022/09/16 12:34:11;;;;;;;3.80;0.40;;;21.80;38.30;;;;;;5021786;28;20418;-78
2022/09/16 12:36:41;;;;;;;1.90;0.20;;;21.70;45.50;;;;;;5020005;28;20457;-79
2022/09/16 12:39:10;;;;;;;3.30;0.40;;;21.70;28.20;;;;;;5020889;28;20892;-82
2022/09/16 12:42:21;;;;;;;3.80;0.77;;;21.70;38.20;;;;;;5020524;28;20415;-76
2022/09/16 12:45:22;;;;;;;2.50;0.20;;;21.90;28.30;;;;;;5025010;28;20488;-75
2022/09/16 12:48:12;;;;;;;4.70;0.63;;;21.40;28.80;;;;;;5023455;28;20422;-79
2022/09/16 12:50:49;;;;;;;2.70;0.33;;;22.00;42.00;;;;;;5023372;28;20405;-76
2022/09/16 12:53:48;;;;;;;1.70;0.47;;;21.90;33.30;;;;;;5022833;28;20775;-75
2022/09/16 12:56:23;;;;;;;2.13;0.60;;;22.20;32.70;;;;;;5019615;28;20897;-79
2022/09/16 12:59:12;;;;;;;5.00;0.40;;;22.00;29.80;;;;;;5020411;28;20466;-75
2022/09/16 13:01:49;;;;;;;2.30;0.33;;;21.00;34.70;;;;;;5023817;28;20418;-78
2022/09/16 13:04:31;;;;;;;0.80;0.20;;;20.50;95.40;;;;;;5015174;28;20516;-77
2022/09/16 13:06:58;;;;;;;1.93;0.20;;;20.50;81.60;;;;;;5012803;28;20436;-75
2022/09/16 13:09:32;;;;;;;1.07;0.30;;;19.70;99.90;;;;;;5012910;28;20450;-74
2022/09/16 13:12:01;;;;;;;1.97;0.30;;;18.70;99.90;;;;;;5016459;28;20416;-76
2022/09/16 13:14:31;;;;;;;2.10;0.30;;;18.00;1.00;;;;;;5016631;28;20424;-77
2022/09/16 13:16:58;;;;;;;1.63;0.20;;;17.30;83.10;;;;;;5016810;28;20414;-77
2022/09/16 13:19:33;;;;;;;3.00;0.30;;;17.30;1.00;;;;;;5016527;28;20455;-76
2022/09/16 13:22:18;;;;;;;4.13;0.30;;;18.10;1.00;;;;;;5016474;28;20929;-77